createdAt,value
2018-02-20T00:02:03.027Z,37.93
2018-02-20T00:04:30.592Z,38.73
2018-02-20T00:06:58.109Z,39.43
2018-02-20T00:09:25.616Z,39.90
2018-02-20T00:11:53.116Z,42.57
2018-02-20T00:14:21.392Z,42.63
2018-02-20T00:16:49.103Z,39.87
2018-02-20T00:19:16.644Z,39.57
2018-02-20T00:21:44.295Z,37.20
2018-02-20T00:24:12.128Z,39.17
2018-02-20T00:26:39.792Z,40.03
2018-02-20T00:29:07.312Z,38.07
2018-02-20T00:31:35.073Z,40.27
2018-02-20T00:34:02.608Z,36.57
2018-02-20T00:36:30.263Z,39.60
2018-02-20T00:38:57.779Z,39.20
2018-02-20T00:41:25.280Z,39.77
2018-02-20T00:43:52.910Z,40.30
2018-02-20T00:46:20.604Z,40.50
2018-02-20T00:48:48.113Z,39.80
2018-02-20T00:51:16.376Z,41.50
2018-02-20T00:53:44.083Z,40.03
2018-02-20T00:56:11.768Z,40.80
2018-02-20T00:58:39.268Z,39.53
2018-02-20T01:01:06.785Z,37.57
2018-02-20T01:03:34.276Z,38.73
2018-02-20T01:06:01.917Z,41.20
2018-02-20T01:08:29.692Z,38.83
2018-02-20T01:10:57.192Z,38.23
2018-02-20T01:13:24.699Z,36.13
2018-02-20T01:15:52.199Z,37.27
2018-02-20T01:18:20.475Z,36.37
2018-02-20T01:20:47.979Z,38.53
2018-02-20T01:23:15.631Z,35.87
2018-02-20T01:25:43.136Z,35.83
2018-02-20T01:28:10.644Z,36.50
2018-02-20T01:30:38.327Z,36.93
2018-02-20T01:33:05.832Z,36.23
2018-02-20T01:35:33.547Z,33.27
2018-02-20T01:38:01.060Z,35.53
2018-02-20T01:40:28.772Z,35.90
2018-02-20T01:42:56.278Z,36.90
2018-02-20T01:45:23.987Z,34.50
2018-02-20T01:47:51.752Z,35.10
2018-02-20T01:50:19.259Z,36.77
2018-02-20T01:52:46.972Z,35.40
2018-02-20T01:55:15.091Z,36.50
2018-02-20T01:57:42.588Z,36.80
2018-02-20T02:00:10.270Z,37.10
2018-02-20T02:02:38.019Z,34.87
2018-02-20T02:05:05.533Z,37.10
2018-02-20T02:07:33.035Z,33.53
2018-02-20T02:10:00.540Z,36.47
2018-02-20T02:12:28.827Z,34.47
2018-02-20T02:14:57.455Z,35.83
2018-02-20T02:17:25.215Z,35.30
2018-02-20T02:19:52.980Z,34.50
2018-02-20T02:22:20.692Z,35.00
2018-02-20T02:24:48.195Z,37.13
2018-02-20T02:27:15.974Z,35.37
2018-02-20T02:29:43.472Z,37.40
2018-02-20T02:32:10.976Z,37.03
2018-02-20T02:34:38.484Z,35.20
2018-02-20T02:37:06.759Z,37.57
2018-02-20T02:39:34.475Z,33.00
2018-02-20T02:42:02.241Z,35.80
2018-02-20T02:44:29.743Z,36.67
2018-02-20T02:46:57.437Z,35.40
2018-02-20T02:49:24.932Z,35.30
2018-02-20T02:51:54.919Z,36.80
2018-02-20T02:54:22.600Z,35.90
2018-02-20T02:56:50.113Z,34.77
2018-02-20T02:59:17.784Z,33.97
2018-02-20T03:01:45.289Z,34.50
2018-02-20T03:04:13.033Z,34.60
2018-02-20T03:06:40.531Z,36.77
2018-02-20T03:09:08.602Z,34.77
2018-02-20T03:11:36.095Z,36.40
2018-02-20T03:14:03.860Z,36.90
2018-02-20T03:16:31.483Z,35.03
2018-02-20T03:18:58.999Z,36.00
2018-02-20T03:21:26.505Z,35.20
2018-02-20T03:23:54.228Z,36.80
2018-02-20T03:26:21.983Z,36.97
2018-02-20T03:28:49.492Z,34.97
2018-02-20T03:31:16.997Z,35.57
2018-02-20T03:33:44.668Z,34.50
2018-02-20T03:36:12.168Z,34.30
2018-02-20T03:38:39.939Z,33.60
2018-02-20T03:41:07.395Z,35.20
2018-02-20T03:43:35.122Z,35.77
2018-02-20T03:46:04.132Z,37.43
2018-02-20T03:48:31.863Z,34.63
2018-02-20T03:50:59.380Z,34.27
2018-02-20T03:53:27.004Z,35.07
2018-02-20T03:55:54.516Z,38.90
2018-02-20T03:58:22.016Z,35.43
2018-02-20T04:00:49.767Z,36.77
2018-02-20T04:03:17.259Z,36.10
2018-02-20T04:05:44.800Z,37.63
2018-02-20T04:08:12.319Z,37.00
2018-02-20T04:10:40.481Z,36.20
2018-02-20T04:13:07.975Z,35.60
2018-02-20T04:15:35.493Z,36.47
2018-02-20T04:18:03.190Z,34.70
2018-02-20T04:20:30.984Z,35.93
2018-02-20T04:22:58.704Z,36.50
2018-02-20T04:25:26.214Z,36.70
2018-02-20T04:27:53.939Z,38.17
2018-02-20T04:30:21.447Z,36.10
2018-02-20T04:32:49.103Z,34.80
2018-02-20T04:35:16.616Z,35.03
2018-02-20T04:37:44.978Z,35.27
2018-02-20T04:40:12.622Z,37.20
2018-02-20T04:42:40.195Z,35.63
2018-02-20T04:45:07.705Z,35.23
2018-02-20T04:47:35.467Z,36.43
2018-02-20T04:50:03.189Z,36.40
2018-02-20T04:52:30.959Z,34.73
2018-02-20T04:54:58.497Z,38.43
2018-02-20T04:57:26.175Z,33.70
2018-02-20T04:59:53.671Z,37.97
2018-02-20T05:02:21.391Z,35.17
2018-02-20T05:04:48.892Z,36.07
2018-02-20T05:07:16.404Z,36.73
2018-02-20T05:09:44.063Z,36.13
2018-02-20T05:12:11.575Z,37.07
2018-02-20T05:14:39.079Z,34.47
2018-02-20T05:17:06.713Z,36.90
2018-02-20T05:19:34.448Z,32.90
2018-02-20T05:22:02.282Z,35.87
2018-02-20T05:24:30.014Z,34.90
2018-02-20T05:26:57.788Z,37.10
2018-02-20T05:29:25.339Z,36.87
2018-02-20T05:31:52.851Z,44.00
2018-02-20T05:34:21.392Z,47.03
2018-02-20T05:36:48.905Z,41.93
2018-02-20T05:39:16.567Z,37.10
2018-02-20T05:41:44.088Z,37.00
2018-02-20T05:44:13.111Z,35.00
2018-02-20T05:46:40.923Z,38.10
2018-02-20T05:49:08.432Z,34.30
2018-02-20T05:51:36.704Z,36.50
2018-02-20T05:54:04.206Z,36.40
2018-02-20T05:56:31.698Z,36.70
2018-02-20T05:58:59.372Z,32.93
2018-02-20T06:01:27.676Z,33.87
2018-02-20T06:03:55.237Z,36.37
2018-02-20T06:06:24.199Z,34.80
2018-02-20T06:08:51.695Z,34.33
2018-02-20T06:11:19.214Z,34.67
2018-02-20T06:13:47.484Z,35.07
2018-02-20T06:16:15.228Z,35.40
2018-02-20T06:18:43.160Z,36.70
2018-02-20T06:21:10.690Z,33.87
2018-02-20T06:23:38.196Z,35.97
2018-02-20T06:26:05.691Z,32.80
2018-02-20T06:28:33.208Z,69.90
2018-02-20T06:31:00.706Z,53.70
2018-02-20T06:33:28.980Z,37.10
2018-02-20T06:35:56.654Z,35.67
2018-02-20T06:38:24.166Z,36.07
2018-02-20T06:40:51.668Z,36.57
2018-02-20T06:43:19.367Z,36.23
2018-02-20T06:45:47.147Z,35.23
2018-02-20T06:48:14.651Z,34.57
2018-02-20T06:50:42.346Z,35.60
2018-02-20T06:53:09.839Z,36.10
2018-02-20T06:55:37.956Z,36.17
2018-02-20T06:58:05.455Z,33.67
2018-02-20T07:00:33.165Z,36.87
2018-02-20T07:03:00.669Z,36.77
2018-02-20T07:05:28.327Z,35.03
2018-02-20T07:07:55.973Z,35.23
2018-02-20T07:10:23.468Z,35.23
2018-02-20T07:12:51.024Z,33.80
2018-02-20T07:15:18.548Z,36.20
2018-02-20T07:17:46.840Z,36.47
2018-02-20T07:20:14.617Z,37.27
2018-02-20T07:22:42.116Z,36.13
2018-02-20T07:25:09.656Z,35.63
2018-02-20T07:27:37.155Z,34.67
2018-02-20T07:30:04.658Z,36.27
2018-02-20T07:32:32.208Z,38.67
2018-02-20T07:34:59.725Z,35.47
2018-02-20T07:37:27.342Z,34.37
2018-02-20T07:39:54.851Z,36.00
2018-02-20T07:42:22.375Z,38.67
2018-02-20T07:44:50.051Z,35.63
2018-02-20T07:47:17.784Z,33.97
2018-02-20T07:49:45.279Z,35.17
2018-02-20T07:52:12.789Z,36.83
2018-02-20T07:54:40.542Z,34.80
2018-02-20T07:57:08.054Z,38.53
2018-02-20T07:59:35.935Z,38.40
2018-02-20T08:02:03.496Z,62.73
2018-02-20T08:04:30.986Z,45.67
2018-02-20T08:06:58.491Z,48.40
2018-02-20T08:09:26.108Z,40.10
2018-02-20T08:11:53.662Z,41.37
2018-02-20T08:14:21.272Z,37.03
2018-02-20T08:16:49.808Z,38.17
2018-02-20T08:19:17.322Z,39.07
2018-02-20T08:21:45.033Z,36.10
2018-02-20T08:24:12.563Z,33.73
2018-02-20T08:26:40.035Z,37.10
2018-02-20T08:29:07.601Z,35.30
2018-02-20T08:31:35.098Z,36.07
2018-02-20T08:34:02.609Z,35.20
2018-02-20T08:36:30.114Z,38.50
2018-02-20T08:38:57.801Z,35.53
2018-02-20T08:41:25.300Z,37.00
2018-02-20T08:43:54.430Z,35.97
2018-02-20T08:46:22.699Z,34.57
2018-02-20T08:48:50.407Z,33.60
2018-02-20T08:51:18.715Z,35.43
2018-02-20T08:53:47.157Z,34.67
2018-02-20T08:56:14.660Z,32.90
2018-02-20T08:58:42.166Z,34.40
2018-02-20T09:01:09.668Z,34.30
2018-02-20T09:03:37.300Z,35.33
2018-02-20T09:06:05.372Z,34.07
2018-02-20T09:08:32.880Z,33.97
2018-02-20T09:11:00.568Z,37.33
2018-02-20T09:13:28.088Z,35.30
2018-02-20T09:15:55.803Z,37.37
2018-02-20T09:18:23.303Z,35.37
2018-02-20T09:20:50.805Z,35.77
2018-02-20T09:23:18.438Z,33.90
2018-02-20T09:25:45.932Z,33.63
2018-02-20T09:28:13.437Z,33.30
2018-02-20T09:30:40.948Z,35.20
2018-02-20T09:33:08.825Z,32.57
2018-02-20T09:35:36.387Z,28.80
2018-02-20T09:38:03.884Z,28.97
2018-02-20T09:40:31.621Z,29.30
2018-02-20T09:42:59.379Z,30.60
2018-02-20T09:45:27.132Z,31.10
2018-02-20T09:47:54.640Z,25.83
2018-02-20T09:50:22.536Z,29.70
2018-02-20T09:52:50.299Z,25.67
2018-02-20T09:55:17.791Z,27.63
2018-02-20T09:57:45.335Z,27.50
2018-02-20T10:00:13.139Z,26.37
2018-02-20T10:02:40.635Z,25.40
2018-02-20T10:05:08.504Z,25.60
2018-02-20T10:07:35.982Z,24.90
2018-02-20T10:10:03.517Z,27.70
2018-02-20T10:12:31.028Z,27.37
2018-02-20T10:14:58.534Z,25.23
2018-02-20T10:17:26.041Z,26.00
2018-02-20T10:19:53.548Z,27.20
2018-02-20T10:22:21.058Z,25.70
2018-02-20T10:24:48.562Z,26.37
2018-02-20T10:27:16.071Z,27.10
2018-02-20T10:29:43.808Z,26.03
2018-02-20T10:32:11.581Z,26.93
2018-02-20T10:34:39.091Z,26.80
2018-02-20T10:37:06.604Z,25.47
2018-02-20T10:39:34.204Z,23.67
2018-02-20T10:42:01.714Z,25.90
2018-02-20T10:44:29.477Z,25.47
2018-02-20T10:46:57.005Z,26.20
2018-02-20T10:49:24.684Z,27.07
2018-02-20T10:51:52.569Z,26.40
2018-02-20T10:54:20.212Z,26.10
2018-02-20T10:56:47.986Z,27.80
2018-02-20T10:59:15.505Z,28.03
2018-02-20T11:01:43.497Z,28.77
2018-02-20T11:04:10.991Z,27.43
2018-02-20T11:06:38.611Z,27.97
2018-02-20T11:09:06.132Z,26.23
2018-02-20T11:11:33.630Z,27.30
2018-02-20T11:14:01.407Z,26.67
2018-02-20T11:16:28.932Z,26.57
2018-02-20T11:18:56.421Z,24.20
2018-02-20T11:21:23.928Z,38.33
2018-02-20T11:23:51.437Z,38.53
2018-02-20T11:26:18.991Z,51.33
2018-02-20T11:28:46.635Z,31.87
2018-02-20T11:31:14.211Z,28.97
2018-02-20T11:33:41.774Z,30.47
2018-02-20T11:36:09.261Z,32.20
2018-02-20T11:38:36.950Z,32.97
2018-02-20T11:41:04.419Z,33.30
2018-02-20T11:43:32.080Z,33.23
2018-02-20T11:45:59.582Z,36.20
2018-02-20T11:48:27.090Z,32.77
2018-02-20T11:50:54.782Z,33.43
2018-02-20T11:53:22.293Z,33.40
2018-02-20T11:55:50.002Z,34.83
2018-02-20T11:58:17.511Z,34.70
2018-02-20T12:00:45.012Z,35.17
2018-02-20T12:03:12.668Z,35.37
2018-02-20T12:05:40.858Z,37.00
2018-02-20T12:08:08.574Z,34.00
2018-02-20T12:10:36.868Z,35.77
2018-02-20T12:13:04.376Z,33.03
2018-02-20T12:15:32.112Z,30.50
2018-02-20T12:17:59.907Z,32.00
2018-02-20T12:20:27.661Z,31.07
2018-02-20T12:22:56.666Z,32.13
2018-02-20T12:25:24.216Z,34.03
2018-02-20T12:27:51.724Z,34.37
2018-02-20T12:30:19.306Z,32.33
2018-02-20T12:32:46.810Z,32.00
2018-02-20T12:35:14.323Z,32.27
2018-02-20T12:37:41.826Z,33.97
2018-02-20T12:40:09.408Z,35.60
2018-02-20T12:42:36.929Z,35.90
2018-02-20T12:45:04.701Z,30.17
2018-02-20T12:47:32.205Z,34.47
2018-02-20T12:49:59.879Z,32.63
2018-02-20T12:52:27.438Z,33.57
2018-02-20T12:54:55.103Z,34.53
2018-02-20T12:57:22.614Z,32.97
2018-02-20T12:59:51.206Z,34.53
2018-02-20T13:02:18.708Z,36.13
2018-02-20T13:04:46.460Z,35.80
2018-02-20T13:07:13.973Z,34.73
2018-02-20T13:09:41.673Z,34.97
2018-02-20T13:12:09.461Z,37.40
2018-02-20T13:14:37.257Z,36.57
2018-02-20T13:17:04.714Z,36.30
2018-02-20T13:19:32.227Z,35.37
2018-02-20T13:21:59.950Z,35.37
2018-02-20T13:24:27.618Z,31.10
2018-02-20T13:26:55.342Z,35.80
2018-02-20T13:29:22.861Z,36.07
2018-02-20T13:31:50.371Z,32.77
2018-02-20T13:34:17.880Z,34.70
2018-02-20T13:36:45.392Z,38.50
2018-02-20T13:39:13.798Z,33.70
2018-02-20T13:41:41.375Z,36.63
2018-02-20T13:44:08.897Z,29.67
2018-02-20T13:46:38.835Z,33.83
2018-02-20T13:49:06.515Z,33.97
2018-02-20T13:51:34.270Z,32.60
2018-02-20T13:54:02.043Z,32.60
2018-02-20T13:56:29.563Z,30.90
2018-02-20T13:58:57.443Z,33.13
2018-02-20T14:01:24.978Z,34.40
2018-02-20T14:03:52.483Z,32.23
2018-02-20T14:06:19.988Z,30.60
2018-02-20T14:08:47.675Z,30.93
2018-02-20T14:11:15.184Z,30.27
2018-02-20T14:13:42.794Z,30.23
2018-02-20T14:16:10.356Z,30.23
2018-02-20T14:18:38.158Z,30.23
2018-02-20T14:21:05.903Z,30.67
2018-02-20T14:23:33.424Z,29.43
2018-02-20T14:26:00.934Z,29.10
2018-02-20T14:28:28.560Z,29.10
2018-02-20T14:30:56.073Z,29.00
2018-02-20T14:33:23.776Z,30.53
2018-02-20T14:35:51.563Z,36.47
2018-02-20T14:38:19.075Z,38.80
2018-02-20T14:40:46.770Z,31.30
2018-02-20T14:43:14.547Z,29.80
2018-02-20T14:45:42.064Z,29.10
2018-02-20T14:48:09.615Z,25.60
2018-02-20T14:50:38.186Z,28.90
2018-02-20T14:53:05.684Z,29.30
2018-02-20T14:55:33.338Z,28.23
2018-02-20T14:58:01.447Z,28.90
2018-02-20T15:00:30.027Z,28.47
2018-02-20T15:02:57.552Z,32.30
2018-02-20T15:05:25.052Z,28.03
2018-02-20T15:07:52.773Z,28.20
2018-02-20T15:10:20.263Z,31.70
2018-02-20T15:12:47.778Z,29.27
2018-02-20T15:15:15.439Z,30.30
2018-02-20T15:17:42.939Z,28.73
2018-02-20T15:20:10.455Z,29.10
2018-02-20T15:22:37.955Z,31.40
2018-02-20T15:25:05.470Z,30.47
2018-02-20T15:27:33.092Z,32.40
2018-02-20T15:30:00.833Z,29.90
2018-02-20T15:32:28.331Z,32.10
2018-02-20T15:34:56.060Z,31.50
2018-02-20T15:37:23.823Z,29.77
2018-02-20T15:39:51.351Z,31.20
2018-02-20T15:42:18.883Z,31.00
2018-02-20T15:44:47.160Z,32.30
2018-02-20T15:47:14.742Z,31.97
2018-02-20T15:49:42.400Z,32.00
2018-02-20T15:52:10.119Z,33.07
2018-02-20T15:54:37.828Z,32.10
2018-02-20T15:57:05.541Z,31.47
2018-02-20T15:59:33.056Z,33.30
2018-02-20T16:02:00.963Z,31.27
2018-02-20T16:04:28.616Z,34.60
2018-02-20T16:06:56.401Z,32.20
2018-02-20T16:09:23.982Z,33.20
2018-02-20T16:11:52.129Z,33.80
2018-02-20T16:14:20.472Z,33.33
2018-02-20T16:16:48.050Z,32.73
2018-02-20T16:19:15.653Z,33.23
2018-02-20T16:21:43.237Z,32.30
2018-02-20T16:24:10.788Z,34.30
2018-02-20T16:26:38.490Z,31.30
2018-02-20T16:29:07.599Z,31.50
2018-02-20T16:31:35.880Z,32.60
2018-02-20T16:34:03.959Z,32.23
2018-02-20T16:36:31.470Z,31.23
2018-02-20T16:38:59.021Z,31.83
2018-02-20T16:41:26.606Z,31.30
2018-02-20T16:43:54.837Z,31.43
2018-02-20T16:46:22.344Z,29.20
2018-02-20T16:48:49.876Z,30.10
2018-02-20T16:51:17.638Z,29.70
2018-02-20T16:53:45.415Z,31.20
2018-02-20T16:56:12.926Z,30.10
2018-02-20T16:58:40.432Z,29.17
2018-02-20T17:01:08.051Z,30.20
2018-02-20T17:03:35.556Z,28.33
2018-02-20T17:06:03.187Z,30.00
2018-02-20T17:08:30.755Z,30.87
2018-02-20T17:10:58.283Z,31.60
2018-02-20T17:13:26.490Z,31.60
2018-02-20T17:15:54.047Z,32.50
2018-02-20T17:18:21.548Z,33.67
2018-02-20T17:20:49.065Z,32.43
2018-02-20T17:23:16.726Z,30.67
2018-02-20T17:25:45.365Z,31.07
2018-02-20T17:28:13.183Z,31.70
2018-02-20T17:30:40.936Z,32.27
2018-02-20T17:33:08.444Z,32.00
2018-02-20T17:35:36.528Z,39.27
2018-02-20T17:38:04.231Z,38.57
2018-02-20T17:40:31.742Z,28.63
2018-02-20T17:42:59.459Z,28.47
2018-02-20T17:45:27.000Z,28.97
2018-02-20T17:47:54.682Z,27.53
2018-02-20T17:50:23.943Z,28.93
2018-02-20T17:52:51.468Z,27.70
2018-02-20T17:55:19.196Z,28.67
2018-02-20T17:57:46.955Z,28.17
2018-02-20T18:00:14.479Z,28.53
2018-02-20T18:02:41.990Z,27.27
2018-02-20T18:05:10.264Z,27.70
2018-02-20T18:07:37.770Z,27.10
2018-02-20T18:10:05.310Z,27.70
2018-02-20T18:12:32.868Z,26.50
2018-02-20T18:15:00.405Z,26.60
2018-02-20T18:17:28.233Z,27.60
2018-02-20T18:19:55.782Z,25.80
2018-02-20T18:22:23.716Z,26.80
2018-02-20T18:24:51.436Z,26.70
2018-02-20T18:27:19.208Z,27.17
2018-02-20T18:29:46.720Z,25.30
2018-02-20T18:32:14.416Z,24.83
2018-02-20T18:34:41.924Z,26.57
2018-02-20T18:37:09.434Z,25.57
2018-02-20T18:39:36.943Z,26.43
2018-02-20T18:42:04.551Z,28.90
2018-02-20T18:44:32.268Z,27.47
2018-02-20T18:46:59.887Z,26.43
2018-02-20T18:49:27.399Z,25.93
2018-02-20T18:51:55.169Z,27.47
2018-02-20T18:54:22.738Z,27.10
2018-02-20T18:56:50.304Z,28.00
2018-02-20T18:59:17.852Z,28.30
2018-02-20T19:01:45.385Z,25.23
2018-02-20T19:04:12.954Z,28.87
2018-02-20T19:06:41.283Z,27.87
2018-02-20T19:09:08.874Z,30.00
2018-02-20T19:11:36.489Z,28.00
2018-02-20T19:14:04.250Z,28.27
2018-02-20T19:16:32.010Z,26.33
2018-02-20T19:19:01.318Z,28.17
2018-02-20T19:21:29.031Z,30.47
2018-02-20T19:23:56.567Z,29.50
2018-02-20T19:26:24.085Z,32.50
2018-02-20T19:28:51.620Z,33.70
2018-02-20T19:31:19.852Z,33.03
2018-02-20T19:33:49.324Z,32.80
2018-02-20T19:36:17.204Z,34.50
2018-02-20T19:38:44.723Z,33.70
2018-02-20T19:41:12.428Z,31.60
2018-02-20T19:43:39.951Z,30.73
2018-02-20T19:46:07.456Z,31.23
2018-02-20T19:48:35.104Z,33.50
2018-02-20T19:51:02.624Z,30.67
2018-02-20T19:53:30.134Z,34.03
2018-02-20T19:55:58.412Z,31.07
2018-02-20T19:58:25.952Z,29.97
2018-02-20T20:00:53.616Z,29.40
2018-02-20T20:03:21.128Z,31.23
2018-02-20T20:05:48.647Z,29.90
2018-02-20T20:08:16.931Z,29.27
2018-02-20T20:10:44.454Z,29.27
2018-02-20T20:13:11.980Z,29.57
2018-02-20T20:15:39.499Z,28.87
2018-02-20T20:18:07.965Z,28.70
2018-02-20T20:20:37.114Z,27.87
2018-02-20T20:23:03.126Z,30.50
2018-02-20T20:25:30.648Z,26.60
2018-02-20T20:27:58.434Z,27.73
2018-02-20T20:30:27.417Z,28.47
2018-02-20T20:32:54.924Z,28.53
2018-02-20T20:35:22.436Z,27.37
2018-02-20T20:37:50.715Z,28.30
2018-02-20T20:40:18.211Z,27.30
2018-02-20T20:42:45.912Z,28.37
2018-02-20T20:45:14.252Z,28.37
2018-02-20T20:47:41.764Z,28.70
2018-02-20T20:50:10.111Z,27.13
2018-02-20T20:52:37.644Z,27.93
2018-02-20T20:55:05.218Z,27.03
2018-02-20T20:57:32.748Z,25.70
2018-02-20T21:00:00.258Z,27.10
2018-02-20T21:02:27.992Z,27.50
2018-02-20T21:04:55.511Z,27.10
2018-02-20T21:07:23.036Z,26.90
2018-02-20T21:09:50.646Z,27.10
2018-02-20T21:12:18.161Z,27.23
2018-02-20T21:14:45.981Z,26.83
2018-02-20T21:17:13.509Z,27.10
2018-02-20T21:19:41.040Z,28.00
2018-02-20T21:22:08.599Z,24.30
2018-02-20T21:24:36.114Z,26.00
2018-02-20T21:27:03.699Z,52.30
2018-02-20T21:29:31.212Z,28.20
2018-02-20T21:32:00.639Z,26.13
2018-02-20T21:34:28.689Z,27.70
2018-02-20T21:36:56.187Z,25.27
2018-02-20T21:39:23.732Z,26.80
2018-02-20T21:41:51.236Z,27.50
2018-02-20T21:44:18.746Z,26.17
2018-02-20T21:46:46.248Z,26.60
2018-02-20T21:49:14.287Z,26.90
2018-02-20T21:51:43.307Z,25.10
2018-02-20T21:54:11.047Z,26.17
2018-02-20T21:56:38.540Z,26.23
2018-02-20T21:59:06.058Z,24.30
2018-02-20T22:01:33.576Z,24.67
2018-02-20T22:04:01.076Z,26.30
2018-02-20T22:06:29.345Z,25.63
2018-02-20T22:08:56.968Z,23.93
2018-02-20T22:11:24.699Z,23.90
2018-02-20T22:13:52.243Z,24.97
2018-02-20T22:16:19.748Z,23.10
2018-02-20T22:18:47.407Z,23.20
2018-02-20T22:21:14.938Z,23.30
2018-02-20T22:23:43.935Z,26.60
2018-02-20T22:26:11.445Z,25.50
2018-02-20T22:28:39.120Z,24.13
2018-02-20T22:31:06.627Z,25.10
2018-02-20T22:33:34.132Z,24.53
2018-02-20T22:36:01.773Z,24.50
2018-02-20T22:38:29.289Z,23.60
2018-02-20T22:40:57.011Z,23.47
2018-02-20T22:43:24.516Z,23.40
2018-02-20T22:45:52.220Z,24.40
2018-02-20T22:48:19.734Z,25.27
2018-02-20T22:50:47.435Z,24.17
2018-02-20T22:53:14.942Z,22.60
2018-02-20T22:55:42.655Z,22.17
2018-02-20T22:58:10.423Z,22.43
2018-02-20T23:00:37.941Z,23.23
2018-02-20T23:03:05.439Z,23.20
2018-02-20T23:05:33.006Z,23.63
2018-02-20T23:08:00.701Z,23.20
2018-02-20T23:10:28.967Z,22.60
2018-02-20T23:12:56.473Z,23.10
2018-02-20T23:15:23.980Z,23.63
2018-02-20T23:17:51.489Z,24.03
2018-02-20T23:20:19.076Z,21.60
2018-02-20T23:22:46.592Z,22.57
2018-02-20T23:25:14.105Z,23.10
2018-02-20T23:27:41.771Z,23.60
2018-02-20T23:30:09.280Z,21.53
2018-02-20T23:32:36.952Z,20.63
2018-02-20T23:35:04.727Z,23.77
2018-02-20T23:37:32.236Z,23.20
2018-02-20T23:39:59.743Z,20.60
2018-02-20T23:42:28.024Z,22.90
2018-02-20T23:44:55.560Z,23.30
2018-02-20T23:47:23.236Z,21.40
2018-02-20T23:49:51.012Z,22.70
2018-02-20T23:52:18.768Z,23.20
2018-02-20T23:54:46.288Z,21.77
2018-02-20T23:57:13.797Z,22.17
2018-02-20T23:59:41.403Z,21.33
